createdAt,value
2022-11-05T00:00:19.147Z,91.63
2022-11-05T00:02:20.619Z,92.14
2022-11-05T00:06:32.125Z,92.44
2022-11-05T00:08:35.285Z,92.58
2022-11-05T00:10:38.455Z,91.87
2022-11-05T00:12:40.284Z,92.79
2022-11-05T00:14:41.869Z,92.59
2022-11-05T00:16:43.406Z,93.34
2022-11-05T00:18:45.066Z,92.45
2022-11-05T00:20:46.576Z,93.09
2022-11-05T00:22:48.110Z,93.11
2022-11-05T00:24:50.979Z,93.65
2022-11-05T00:26:52.492Z,93.21
2022-11-05T00:28:54.046Z,92.46
2022-11-05T00:31:00.525Z,93.17
2022-11-05T00:33:02.243Z,92.60
2022-11-05T00:35:04.373Z,92.67
2022-11-05T00:37:05.878Z,92.87
2022-11-05T00:39:07.406Z,93.48
2022-11-05T00:41:10.343Z,93.26
2022-11-05T00:43:12.817Z,93.26
2022-11-05T00:45:14.906Z,93.24
2022-11-05T00:47:16.405Z,93.64
2022-11-05T00:49:17.906Z,93.04
2022-11-05T00:51:19.696Z,92.56
2022-11-05T00:53:21.253Z,92.94
2022-11-05T00:55:23.407Z,92.65
2022-11-05T00:57:26.332Z,92.98
2022-11-05T00:59:27.858Z,92.12
2022-11-05T01:01:29.451Z,92.53
2022-11-05T01:03:34.130Z,92.61
2022-11-05T01:05:39.087Z,92.31
2022-11-05T01:07:40.900Z,92.55
2022-11-05T01:09:42.401Z,92.75
2022-11-05T01:11:43.885Z,92.36
2022-11-05T01:13:47.183Z,92.56
2022-11-05T01:15:49.921Z,92.78
2022-11-05T01:17:51.940Z,92.41
2022-11-05T01:19:53.460Z,92.42
2022-11-05T01:21:54.986Z,92.57
2022-11-05T01:23:56.589Z,92.12
2022-11-05T01:25:58.541Z,92.42
2022-11-05T01:28:01.282Z,91.88
2022-11-05T01:30:06.190Z,91.83
2022-11-05T01:32:07.720Z,91.92
2022-11-05T01:34:09.228Z,92.31
2022-11-05T01:36:10.780Z,91.83
2022-11-05T01:38:12.457Z,92.32
2022-11-05T01:40:15.761Z,92.55
2022-11-05T01:42:21.412Z,92.43
2022-11-05T01:45:02.260Z,93.17
2022-11-05T01:47:05.415Z,93.57
2022-11-05T01:49:13.388Z,93.76
2022-11-05T01:51:18.223Z,93.68
2022-11-05T01:53:25.028Z,93.41
2022-11-05T01:55:31.752Z,93.41
2022-11-05T01:57:33.472Z,93.42
2022-11-05T01:59:38.643Z,93.72
2022-11-05T02:04:11.324Z,92.60
2022-11-05T02:06:15.908Z,92.26
2022-11-05T02:08:25.943Z,91.84
2022-11-05T02:10:27.933Z,91.99
2022-11-05T02:12:30.174Z,92.01
2022-11-05T02:14:31.629Z,91.61
2022-11-05T02:16:39.411Z,91.84
2022-11-05T02:18:53.026Z,91.77
2022-11-05T02:21:05.443Z,92.46
2022-11-05T02:23:45.348Z,92.57
2022-11-05T02:26:29.399Z,93.33
2022-11-05T02:29:01.711Z,93.38
2022-11-05T02:31:13.671Z,93.08
2022-11-05T02:33:33.304Z,92.91
2022-11-05T02:35:59.503Z,93.09
2022-11-05T02:38:07.317Z,92.95
2022-11-05T02:40:17.271Z,93.23
2022-11-05T02:42:30.272Z,93.24
2022-11-05T02:44:41.327Z,93.57
2022-11-05T02:46:51.568Z,93.42
2022-11-05T02:48:58.813Z,93.48
2022-11-05T02:51:08.625Z,93.18
2022-11-05T02:53:16.043Z,92.79
2022-11-05T02:55:25.088Z,92.79
2022-11-05T02:57:28.811Z,92.74
2022-11-05T02:59:30.499Z,92.62
2022-11-05T03:01:32.099Z,92.41
2022-11-05T03:03:39.733Z,91.97
2022-11-05T03:05:50.648Z,91.84
2022-11-05T03:07:59.184Z,91.47
2022-11-05T03:10:14.270Z,91.56
2022-11-05T03:12:23.724Z,91.96
2022-11-05T03:14:39.356Z,91.68
2022-11-05T03:16:44.266Z,91.44
2022-11-05T03:18:56.660Z,91.27
2022-11-05T03:21:02.706Z,91.13
2022-11-05T03:23:11.092Z,91.30
2022-11-05T03:25:17.625Z,90.94
2022-11-05T03:27:23.456Z,91.36
2022-11-05T03:29:30.109Z,91.69
2022-11-05T03:31:34.116Z,92.01
2022-11-05T03:33:37.711Z,92.11
2022-11-05T03:35:46.361Z,91.87
2022-11-05T03:37:51.745Z,92.17
2022-11-05T03:39:58.858Z,92.15
2022-11-05T03:42:03.746Z,92.61
2022-11-05T03:44:08.278Z,92.63
2022-11-05T03:46:15.743Z,92.62
2022-11-05T03:48:19.989Z,93.11
2022-11-05T03:50:27.208Z,92.88
2022-11-05T03:52:35.907Z,93.01
2022-11-05T03:54:37.655Z,93.13
2022-11-05T03:56:44.385Z,93.16
2022-11-05T03:58:47.261Z,93.17
2022-11-05T04:00:49.664Z,93.25
2022-11-05T04:02:51.624Z,93.31
2022-11-05T04:04:54.787Z,93.31
2022-11-05T04:06:56.259Z,92.82
2022-11-05T04:08:59.099Z,93.54
2022-11-05T04:11:00.563Z,93.91
2022-11-05T04:13:02.046Z,93.96
2022-11-05T04:15:03.939Z,93.34
2022-11-05T04:17:05.620Z,93.22
2022-11-05T04:19:07.108Z,93.46
2022-11-05T04:21:10.121Z,94.05
2022-11-05T04:23:11.916Z,94.08
2022-11-05T04:25:16.387Z,93.97
2022-11-05T04:27:17.862Z,94.16
2022-11-05T04:29:19.396Z,94.14
2022-11-05T04:31:20.866Z,94.58
2022-11-05T04:33:22.337Z,94.08
2022-11-05T04:35:24.369Z,93.84
2022-11-05T04:37:25.847Z,94.26
2022-11-05T04:39:27.304Z,94.03
2022-11-05T04:41:30.133Z,94.14
2022-11-05T04:43:31.608Z,93.66
2022-11-05T04:45:34.702Z,93.66
2022-11-05T04:47:36.165Z,93.92
2022-11-05T04:49:37.634Z,93.79
2022-11-05T04:51:39.093Z,93.29
2022-11-05T04:53:40.559Z,92.80
2022-11-05T04:55:42.060Z,92.66
2022-11-05T04:57:47.669Z,92.80
2022-11-05T04:59:49.135Z,92.39
2022-11-05T05:01:51.432Z,92.28
2022-11-05T05:03:54.059Z,92.54
2022-11-05T05:06:03.553Z,92.94
2022-11-05T05:08:05.818Z,92.69
2022-11-05T05:10:09.041Z,92.70
2022-11-05T05:12:10.536Z,93.11
2022-11-05T05:14:13.340Z,92.76
2022-11-05T05:16:19.424Z,92.15
2022-11-05T05:18:20.908Z,92.33
2022-11-05T05:20:22.361Z,92.07
2022-11-05T05:22:23.841Z,92.53
2022-11-05T05:24:25.310Z,92.72
2022-11-05T05:26:26.783Z,92.37
2022-11-05T05:28:28.392Z,92.05
2022-11-05T05:30:31.223Z,92.51
2022-11-05T05:32:33.125Z,92.66
2022-11-05T05:34:34.591Z,92.63
2022-11-05T05:36:36.046Z,92.87
2022-11-05T05:38:37.667Z,92.86
2022-11-05T05:40:39.116Z,93.06
2022-11-05T05:42:43.440Z,93.46
2022-11-05T05:44:45.132Z,93.26
2022-11-05T05:46:47.968Z,92.73
2022-11-05T05:48:51.006Z,92.59
2022-11-05T05:50:52.439Z,92.59
2022-11-05T05:52:53.945Z,92.71
2022-11-05T05:54:55.437Z,92.42
2022-11-05T05:56:56.899Z,92.92
2022-11-05T05:58:58.359Z,92.83
2022-11-05T06:01:00.701Z,92.50
2022-11-05T06:03:03.721Z,92.52
2022-11-05T06:05:05.737Z,92.49
2022-11-05T06:07:07.383Z,93.22
2022-11-05T06:09:08.857Z,92.66
2022-11-05T06:11:10.413Z,93.08
2022-11-05T06:13:12.228Z,92.61
2022-11-05T06:15:13.889Z,93.26
2022-11-05T06:17:15.372Z,93.33
2022-11-05T06:19:18.209Z,93.07
2022-11-05T06:21:19.765Z,92.51
2022-11-05T06:23:21.273Z,92.88
2022-11-05T06:25:22.833Z,92.63
2022-11-05T06:27:24.271Z,92.73
2022-11-05T06:29:25.769Z,93.17
2022-11-05T06:31:27.229Z,93.65
2022-11-05T06:33:28.843Z,93.07
2022-11-05T06:35:32.152Z,93.04
2022-11-05T06:37:33.578Z,93.16
2022-11-05T06:39:35.039Z,93.19
2022-11-05T06:41:56.977Z,93.41
2022-11-05T06:43:58.062Z,93.92
2022-11-05T06:46:01.794Z,93.48
2022-11-05T06:48:03.532Z,93.51
2022-11-05T06:50:05.765Z,93.36
2022-11-05T06:52:08.652Z,92.73
2022-11-05T06:54:10.213Z,92.72
2022-11-05T06:56:11.710Z,93.47
2022-11-05T06:58:13.372Z,92.96
2022-11-05T07:00:15.797Z,92.24
2022-11-05T07:02:17.285Z,92.16
2022-11-05T07:04:18.885Z,93.01
2022-11-05T07:06:20.426Z,92.93
2022-11-05T07:08:23.407Z,92.92
2022-11-05T07:10:25.156Z,93.05
2022-11-05T07:12:26.621Z,92.67
2022-11-05T07:14:28.063Z,92.94
2022-11-05T07:16:29.571Z,92.14
2022-11-05T07:18:31.049Z,92.12
2022-11-05T07:20:34.418Z,92.12
2022-11-05T07:22:36.964Z,91.97
2022-11-05T07:24:39.764Z,92.22
2022-11-05T07:26:41.312Z,92.09
2022-11-05T07:28:42.815Z,91.54
2022-11-05T07:30:44.247Z,91.47
2022-11-05T07:32:45.709Z,91.56
2022-11-05T07:34:47.183Z,91.50
2022-11-05T07:36:48.651Z,91.98
2022-11-05T07:38:50.140Z,91.49
2022-11-05T07:40:52.973Z,91.87
2022-11-05T07:42:56.214Z,92.06
2022-11-05T07:44:57.662Z,92.03
2022-11-05T07:46:59.125Z,91.79
2022-11-05T07:49:00.592Z,92.44
2022-11-05T07:51:02.047Z,92.38
2022-11-05T07:53:05.336Z,92.14
2022-11-05T07:55:07.939Z,92.38
2022-11-05T07:57:10.739Z,92.27
2022-11-05T07:59:12.250Z,92.55
2022-11-05T08:01:13.753Z,92.59
2022-11-05T08:03:18.034Z,92.05
2022-11-05T08:05:19.879Z,92.28
2022-11-05T08:07:21.328Z,92.20
2022-11-05T08:09:22.794Z,91.86
2022-11-05T08:11:24.278Z,92.41
2022-11-05T08:13:27.157Z,92.12
2022-11-05T08:15:29.051Z,92.15
2022-11-05T08:17:30.510Z,92.02
2022-11-05T08:19:31.988Z,92.31
2022-11-05T08:21:33.448Z,91.33
2022-11-05T08:23:34.960Z,90.86
2022-11-05T08:25:36.456Z,91.01
2022-11-05T08:27:38.059Z,90.52
2022-11-05T08:29:40.875Z,89.15
2022-11-05T08:31:42.339Z,89.42
2022-11-05T08:33:44.132Z,88.99
2022-11-05T08:35:45.619Z,88.98
2022-11-05T08:37:47.069Z,90.01
2022-11-05T08:39:48.564Z,90.47
2022-11-05T08:41:50.022Z,90.32
2022-11-05T08:43:54.279Z,89.23
2022-11-05T08:45:59.335Z,89.38
2022-11-05T08:48:01.548Z,88.36
2022-11-05T08:50:03.410Z,88.57
2022-11-05T08:52:04.933Z,88.01
2022-11-05T08:54:06.645Z,88.00
2022-11-05T08:56:08.532Z,87.52
2022-11-05T08:58:12.176Z,87.05
2022-11-05T09:00:14.819Z,87.13
2022-11-05T09:02:17.751Z,87.39
2022-11-05T09:04:19.322Z,86.47
2022-11-05T09:06:20.943Z,87.16
2022-11-05T09:08:22.422Z,86.61
2022-11-05T09:10:24.249Z,85.70
2022-11-05T09:12:25.729Z,86.84
2022-11-05T09:14:27.231Z,86.75
2022-11-05T09:16:28.797Z,85.91
2022-11-05T09:18:31.659Z,86.72
2022-11-05T09:20:33.912Z,86.29
2022-11-05T09:22:39.206Z,86.36
2022-11-05T09:24:44.489Z,86.03
2022-11-05T09:26:45.983Z,85.53
2022-11-05T09:28:47.470Z,84.80
2022-11-05T09:30:50.589Z,84.17
2022-11-05T09:32:52.239Z,83.50
2022-11-05T09:34:55.117Z,84.52
2022-11-05T09:36:57.143Z,84.41
2022-11-05T09:38:58.623Z,84.96
2022-11-05T09:41:02.299Z,84.26
2022-11-05T09:43:05.379Z,83.83
2022-11-05T09:45:13.432Z,84.13
2022-11-05T09:47:20.152Z,84.92
2022-11-05T09:49:27.638Z,84.54
2022-11-05T09:51:31.533Z,83.73
2022-11-05T09:53:38.016Z,83.66
2022-11-05T09:55:42.318Z,83.09
2022-11-05T09:57:45.920Z,83.65
2022-11-05T09:59:51.017Z,82.81
2022-11-05T10:01:57.749Z,83.76
2022-11-05T10:04:05.724Z,83.36
2022-11-05T10:06:09.459Z,83.48
2022-11-05T10:08:18.023Z,83.08
2022-11-05T10:10:30.370Z,83.30
2022-11-05T10:12:39.117Z,83.17
2022-11-05T10:14:44.443Z,83.78
2022-11-05T10:16:51.967Z,83.56
2022-11-05T10:18:59.040Z,84.26
2022-11-05T10:21:01.014Z,84.04
2022-11-05T10:23:10.715Z,84.25
2022-11-05T10:25:19.064Z,83.35
2022-11-05T10:27:23.803Z,82.39
2022-11-05T10:29:27.329Z,81.69
2022-11-05T10:31:35.525Z,81.96
2022-11-05T10:33:42.112Z,82.29
2022-11-05T10:35:48.485Z,80.74
2022-11-05T10:37:50.636Z,80.33
2022-11-05T10:39:52.172Z,79.66
2022-11-05T10:42:09.533Z,79.11
2022-11-05T10:44:27.989Z,79.33
2022-11-05T10:46:35.119Z,78.08
2022-11-05T10:49:00.812Z,77.68
2022-11-05T10:51:02.296Z,78.11
2022-11-05T10:53:14.379Z,78.15
2022-11-05T10:55:20.805Z,77.96
2022-11-05T10:57:34.354Z,76.64
2022-11-05T10:59:36.168Z,77.16
2022-11-05T11:01:37.753Z,76.34
2022-11-05T11:03:43.166Z,76.25
2022-11-05T11:05:44.647Z,75.09
2022-11-05T11:07:53.863Z,75.37
2022-11-05T11:09:55.429Z,74.63
2022-11-05T11:12:04.230Z,74.27
2022-11-05T11:14:19.419Z,74.76
2022-11-05T11:16:22.700Z,74.99
2022-11-05T11:18:27.597Z,74.16
2022-11-05T11:20:30.952Z,74.04
2022-11-05T11:22:32.611Z,74.80
2022-11-05T11:24:38.668Z,72.98
2022-11-05T11:26:40.692Z,73.18
2022-11-05T11:28:46.979Z,71.85
2022-11-05T11:30:53.796Z,72.37
2022-11-05T11:32:59.702Z,72.60
2022-11-05T11:35:01.968Z,71.67
2022-11-05T11:37:07.779Z,73.15
2022-11-05T11:39:15.566Z,71.88
2022-11-05T11:41:25.100Z,70.90
2022-11-05T11:43:28.743Z,70.73
2022-11-05T11:45:33.682Z,70.90
2022-11-05T11:47:43.456Z,72.76
2022-11-05T11:49:46.988Z,71.14
2022-11-05T11:51:50.274Z,72.17
2022-11-05T11:53:57.133Z,70.32
2022-11-05T11:56:05.355Z,70.38
2022-11-05T11:58:09.745Z,71.06
2022-11-05T12:00:12.246Z,70.09
2022-11-05T12:02:50.323Z,69.33
2022-11-05T12:05:10.813Z,69.37
2022-11-05T12:07:25.013Z,69.17
2022-11-05T12:09:40.363Z,68.54
2022-11-05T12:11:48.875Z,68.93
2022-11-05T12:14:01.154Z,68.13
2022-11-05T12:16:14.352Z,67.16
2022-11-05T12:18:25.612Z,66.44
2022-11-05T12:20:38.081Z,66.70
2022-11-05T12:22:57.095Z,66.54
2022-11-05T12:25:12.856Z,67.72
2022-11-05T12:27:24.176Z,67.33
2022-11-05T12:29:45.134Z,67.53
2022-11-05T12:32:02.229Z,66.51
2022-11-05T12:34:19.399Z,66.47
2022-11-05T12:36:43.072Z,68.40
2022-11-05T12:39:18.715Z,67.57
2022-11-05T12:41:25.496Z,69.34
2022-11-05T12:43:36.404Z,67.78
2022-11-05T12:45:47.008Z,67.40
2022-11-05T12:48:04.727Z,67.47
2022-11-05T12:50:20.442Z,67.03
2022-11-05T12:52:48.647Z,67.78
2022-11-05T12:55:03.700Z,68.64
2022-11-05T12:57:08.640Z,68.67
2022-11-05T12:59:18.036Z,71.09
2022-11-05T13:01:26.605Z,68.51
2022-11-05T13:03:40.100Z,68.82
2022-11-05T13:05:45.986Z,69.09
2022-11-05T13:07:54.555Z,68.04
2022-11-05T13:10:01.229Z,68.88
2022-11-05T13:12:06.387Z,67.88
2022-11-05T13:14:12.837Z,69.07
2022-11-05T13:16:26.904Z,68.63
2022-11-05T13:18:35.000Z,69.45
2022-11-05T13:20:39.902Z,69.12
2022-11-05T13:22:45.990Z,68.73
2022-11-05T13:24:49.875Z,67.99
2022-11-05T13:26:56.462Z,67.64
2022-11-05T13:29:04.268Z,68.43
2022-11-05T13:31:10.526Z,69.81
2022-11-05T13:33:16.437Z,68.24
2022-11-05T13:35:25.161Z,67.94
2022-11-05T13:37:31.050Z,68.65
2022-11-05T13:39:36.378Z,68.77
2022-11-05T13:41:53.221Z,70.71
2022-11-05T13:44:22.115Z,70.13
2022-11-05T13:46:37.648Z,68.16
2022-11-05T13:49:04.728Z,68.75
2022-11-05T13:51:22.603Z,68.07
2022-11-05T13:53:51.099Z,67.70
2022-11-05T13:56:04.653Z,67.60
2022-11-05T13:58:45.182Z,67.72
2022-11-05T14:01:02.980Z,67.54
2022-11-05T14:03:14.231Z,67.45
2022-11-05T14:05:23.865Z,66.64
2022-11-05T14:07:28.916Z,68.31
2022-11-05T14:09:33.322Z,67.98
2022-11-05T14:11:38.100Z,69.10
2022-11-05T14:13:42.028Z,69.10
2022-11-05T14:15:55.374Z,66.37
2022-11-05T14:18:00.000Z,65.84
2022-11-05T14:20:24.798Z,67.25
2022-11-05T14:22:38.080Z,67.56
2022-11-05T14:24:41.698Z,68.05
2022-11-05T14:26:44.579Z,70.24
2022-11-05T14:28:48.655Z,70.72
2022-11-05T14:30:50.203Z,70.05
2022-11-05T14:33:02.384Z,70.85
2022-11-05T14:35:33.438Z,71.85
2022-11-05T14:37:36.606Z,73.14
2022-11-05T14:39:39.069Z,73.14
2022-11-05T14:42:01.157Z,72.89
2022-11-05T14:44:07.306Z,73.00
2022-11-05T14:46:09.698Z,73.34
2022-11-05T14:48:27.709Z,72.93
2022-11-05T14:50:36.768Z,72.39
2022-11-05T14:52:40.789Z,73.20
2022-11-05T14:54:45.599Z,72.37
2022-11-05T14:56:55.866Z,73.86
2022-11-05T14:59:34.759Z,73.78
2022-11-05T15:01:54.822Z,75.26
2022-11-05T15:04:16.439Z,74.20
2022-11-05T15:06:30.330Z,75.90
2022-11-05T15:08:36.635Z,75.45
2022-11-05T15:10:38.994Z,75.19
2022-11-05T15:12:45.388Z,74.64
2022-11-05T15:14:54.192Z,75.12
2022-11-05T15:17:01.627Z,75.45
2022-11-05T15:19:04.899Z,75.18
2022-11-05T15:21:10.419Z,75.30
2022-11-05T15:23:16.729Z,76.13
2022-11-05T15:25:21.303Z,75.70
2022-11-05T15:27:38.955Z,76.10
2022-11-05T15:29:40.726Z,76.42
2022-11-05T15:31:43.770Z,76.42
2022-11-05T15:33:46.721Z,77.03
2022-11-05T15:35:48.300Z,77.55
2022-11-05T15:37:54.807Z,77.76
2022-11-05T15:39:57.536Z,77.71
2022-11-05T15:42:02.402Z,77.56
2022-11-05T15:44:04.084Z,77.67
2022-11-05T15:46:07.672Z,77.86
2022-11-05T15:48:19.656Z,77.82
2022-11-05T15:50:21.314Z,78.59
2022-11-05T15:52:24.815Z,78.57
2022-11-05T15:54:30.967Z,78.25
2022-11-05T15:56:36.349Z,78.41
2022-11-05T15:58:46.288Z,78.61
2022-11-05T16:00:48.800Z,78.85
2022-11-05T16:02:53.898Z,79.91
2022-11-05T16:04:58.551Z,79.96
2022-11-05T16:07:06.493Z,79.76
2022-11-05T16:09:19.482Z,80.01
2022-11-05T16:11:22.990Z,79.46
2022-11-05T16:13:31.670Z,80.11
2022-11-05T16:15:33.168Z,79.23
2022-11-05T16:17:46.517Z,79.63
2022-11-05T16:19:48.731Z,79.85
2022-11-05T16:21:55.058Z,80.30
2022-11-05T16:23:58.932Z,80.01
2022-11-05T16:26:00.420Z,80.67
2022-11-05T16:28:02.714Z,80.05
2022-11-05T16:30:05.132Z,79.45
2022-11-05T16:32:14.982Z,79.02
2022-11-05T16:34:26.536Z,80.05
2022-11-05T16:36:30.884Z,79.89
2022-11-05T16:38:33.784Z,78.99
2022-11-05T16:40:35.347Z,80.07
2022-11-05T16:42:39.158Z,79.46
2022-11-05T16:44:40.636Z,78.29
2022-11-05T16:46:44.160Z,78.77
2022-11-05T16:48:45.633Z,78.60
2022-11-05T16:50:47.284Z,78.97
2022-11-05T16:52:49.457Z,78.77
2022-11-05T16:54:52.276Z,79.00
2022-11-05T16:56:53.777Z,77.85
2022-11-05T16:58:55.256Z,77.64
2022-11-05T17:01:01.784Z,77.58
2022-11-05T17:03:03.532Z,77.80
2022-11-05T17:05:06.956Z,79.06
2022-11-05T17:07:08.456Z,78.21
2022-11-05T17:09:09.964Z,78.38
2022-11-05T17:11:15.815Z,77.88
2022-11-05T17:15:45.782Z,77.53
2022-11-05T17:20:19.163Z,77.95
2022-11-05T17:22:20.635Z,78.37
2022-11-05T17:24:22.405Z,77.90
2022-11-05T17:26:25.253Z,78.38
2022-11-05T17:28:27.317Z,77.74
2022-11-05T17:30:28.953Z,77.61
2022-11-05T17:32:30.459Z,77.92
2022-11-05T17:34:31.995Z,77.70
2022-11-05T17:36:33.477Z,78.06
2022-11-05T17:38:35.169Z,78.50
2022-11-05T17:40:37.584Z,78.44
2022-11-05T17:42:40.614Z,77.89
2022-11-05T17:44:42.153Z,77.66
2022-11-05T17:46:43.658Z,77.15
2022-11-05T17:48:45.671Z,77.36
2022-11-05T17:50:49.403Z,77.45
2022-11-05T17:52:50.874Z,76.83
2022-11-05T17:54:52.340Z,76.06
2022-11-05T17:56:53.847Z,75.94
2022-11-05T17:58:56.663Z,76.09
2022-11-05T18:00:58.122Z,75.59
2022-11-05T18:02:59.648Z,76.02
2022-11-05T18:05:01.164Z,76.34
2022-11-05T18:07:02.636Z,75.69
2022-11-05T18:09:04.975Z,76.26
2022-11-05T18:11:06.431Z,75.56
2022-11-05T18:13:07.938Z,77.04
2022-11-05T18:15:11.883Z,76.33
2022-11-05T18:17:13.339Z,75.79
2022-11-05T18:19:15.044Z,75.92
2022-11-05T18:21:16.792Z,76.52
2022-11-05T18:23:18.305Z,77.19
2022-11-05T18:25:19.924Z,77.79
2022-11-05T18:27:21.951Z,77.05
2022-11-05T18:29:23.423Z,76.10
2022-11-05T18:31:26.283Z,75.94
2022-11-05T18:33:28.005Z,76.60
2022-11-05T18:35:29.531Z,76.99
2022-11-05T18:37:31.252Z,75.80
2022-11-05T18:39:32.721Z,76.17
2022-11-05T18:41:34.279Z,76.40
2022-11-05T18:43:35.795Z,75.49
2022-11-05T18:45:37.263Z,76.08
2022-11-05T18:47:40.135Z,75.60
2022-11-05T18:49:41.704Z,76.12
2022-11-05T18:51:43.288Z,75.78
2022-11-05T18:53:44.839Z,75.44
2022-11-05T18:55:46.320Z,75.59
2022-11-05T18:57:47.945Z,75.84
2022-11-05T18:59:49.593Z,76.47
2022-11-05T19:01:51.119Z,76.27
2022-11-05T19:03:54.714Z,75.55
2022-11-05T19:05:56.177Z,76.85
2022-11-05T19:07:58.186Z,77.12
2022-11-05T19:10:50.820Z,77.20
2022-11-05T19:12:52.837Z,76.49
2022-11-05T19:14:59.367Z,76.48
2022-11-05T19:17:08.984Z,76.10
2022-11-05T19:19:10.549Z,76.88
2022-11-05T19:21:15.005Z,77.17
2022-11-05T19:23:16.528Z,76.96
2022-11-05T19:25:18.037Z,76.88
2022-11-05T19:27:20.881Z,76.84
2022-11-05T19:29:22.421Z,76.56
2022-11-05T19:31:23.950Z,76.69
2022-11-05T19:33:25.946Z,76.98
2022-11-05T19:35:27.404Z,76.63
2022-11-05T19:37:28.887Z,76.67
2022-11-05T19:39:30.360Z,76.96
2022-11-05T19:41:31.925Z,76.78
2022-11-05T19:43:35.649Z,77.52
2022-11-05T19:45:44.659Z,77.10
2022-11-05T19:47:46.819Z,76.86
2022-11-05T19:49:48.293Z,76.93
2022-11-05T19:51:49.819Z,77.06
2022-11-05T19:53:52.159Z,76.90
2022-11-05T19:55:53.622Z,77.51
2022-11-05T19:57:55.064Z,76.77
2022-11-05T19:59:57.895Z,77.08
2022-11-05T20:01:59.468Z,77.12
2022-11-05T20:04:01.307Z,77.56
2022-11-05T20:06:04.742Z,77.73
2022-11-05T20:08:06.681Z,77.10
2022-11-05T20:10:08.819Z,76.60
2022-11-05T20:12:10.345Z,76.88
2022-11-05T20:14:11.926Z,77.19
2022-11-05T20:16:23.487Z,78.24
2022-11-05T20:18:25.652Z,77.89
2022-11-05T20:20:27.131Z,78.68
2022-11-05T20:22:28.596Z,78.04
2022-11-05T20:24:30.118Z,78.42
2022-11-05T20:26:31.695Z,79.01
2022-11-05T20:28:35.132Z,78.98
2022-11-05T20:30:38.533Z,78.53
2022-11-05T20:32:41.381Z,78.14
2022-11-05T20:34:42.962Z,77.97
2022-11-05T20:36:44.485Z,78.05
2022-11-05T20:38:48.209Z,78.89
2022-11-05T20:40:49.723Z,78.18
2022-11-05T20:42:51.189Z,78.26
2022-11-05T20:44:52.778Z,78.19
2022-11-05T20:46:54.291Z,78.44
2022-11-05T20:48:57.194Z,77.94
2022-11-05T20:50:59.061Z,77.52
2022-11-05T20:53:00.958Z,78.44
2022-11-05T20:55:03.110Z,78.46
2022-11-05T20:57:05.090Z,78.56
2022-11-05T20:59:07.016Z,78.96
2022-11-05T21:01:11.980Z,78.21
2022-11-05T21:03:13.509Z,78.41
2022-11-05T21:05:16.496Z,77.84
2022-11-05T21:07:18.000Z,78.18
2022-11-05T21:09:19.468Z,77.39
2022-11-05T21:11:21.372Z,78.39
2022-11-05T21:13:23.606Z,78.63
2022-11-05T21:15:25.146Z,78.50
2022-11-05T21:17:26.734Z,77.99
2022-11-05T21:19:30.380Z,77.83
2022-11-05T21:21:36.332Z,77.78
2022-11-05T21:23:40.234Z,77.48
2022-11-05T21:25:43.050Z,78.84
2022-11-05T21:27:44.558Z,77.92
2022-11-05T21:29:46.032Z,77.54
2022-11-05T21:31:47.547Z,77.36
2022-11-05T21:33:54.852Z,77.28
2022-11-05T21:35:57.343Z,77.56
2022-11-05T21:38:00.479Z,77.22
2022-11-05T21:40:01.956Z,77.78
2022-11-05T21:42:03.751Z,77.24
2022-11-05T21:44:05.251Z,77.65
2022-11-05T21:46:06.795Z,77.94
2022-11-05T21:48:08.920Z,77.76
2022-11-05T21:50:11.344Z,78.20
2022-11-05T21:52:13.111Z,79.05
2022-11-05T21:54:16.004Z,78.43
2022-11-05T21:56:21.459Z,79.65
2022-11-05T21:58:22.964Z,79.57
2022-11-05T22:00:24.620Z,79.63
2022-11-05T22:02:26.510Z,80.36
2022-11-05T22:04:28.768Z,80.39
2022-11-05T22:06:32.184Z,80.53
2022-11-05T22:08:33.688Z,79.92
2022-11-05T22:10:36.576Z,79.15
2022-11-05T22:12:38.289Z,79.18
2022-11-05T22:14:39.837Z,79.54
2022-11-05T22:16:41.392Z,79.20
2022-11-05T22:18:42.879Z,79.24
2022-11-05T22:20:44.393Z,79.04
2022-11-05T22:22:45.898Z,80.17
2022-11-05T22:24:47.386Z,80.64
2022-11-05T22:26:51.383Z,80.58
2022-11-05T22:28:53.422Z,79.54
2022-11-05T22:30:54.914Z,80.41
2022-11-05T22:32:56.457Z,80.65
2022-11-05T22:34:57.933Z,80.28
2022-11-05T22:36:59.421Z,80.48
2022-11-05T22:39:02.175Z,80.05
2022-11-05T22:41:07.082Z,80.79
2022-11-05T22:43:09.960Z,81.17
2022-11-05T22:45:11.562Z,81.07
2022-11-05T22:47:13.060Z,81.57
2022-11-05T22:49:15.135Z,80.99
2022-11-05T22:51:19.183Z,81.14
2022-11-05T22:53:20.732Z,81.80
2022-11-05T22:55:22.186Z,81.36
2022-11-05T22:57:23.690Z,81.17
2022-11-05T22:59:26.768Z,81.36
2022-11-05T23:01:28.627Z,81.94
2022-11-05T23:03:31.963Z,81.66
2022-11-05T23:05:33.437Z,82.49
2022-11-05T23:07:34.963Z,82.79
2022-11-05T23:09:36.467Z,82.87
2022-11-05T23:11:38.878Z,82.27
2022-11-05T23:13:40.344Z,82.83
2022-11-05T23:15:43.169Z,82.83
2022-11-05T23:17:44.928Z,82.22
2022-11-05T23:19:46.395Z,82.52
2022-11-05T23:21:47.839Z,82.66
2022-11-05T23:23:49.355Z,82.93
2022-11-05T23:25:56.219Z,83.88
2022-11-05T23:27:57.746Z,82.46
2022-11-05T23:30:00.141Z,82.87
2022-11-05T23:32:03.022Z,83.76
2022-11-05T23:34:04.489Z,83.36
2022-11-05T23:36:06.355Z,83.41
2022-11-05T23:38:07.888Z,84.17
2022-11-05T23:40:13.055Z,84.34
2022-11-05T23:42:14.659Z,84.63
2022-11-05T23:44:16.128Z,83.82
2022-11-05T23:46:17.643Z,83.96
2022-11-05T23:48:25.186Z,83.75
2022-11-05T23:50:27.285Z,83.45
2022-11-05T23:52:28.792Z,83.08
2022-11-05T23:54:30.306Z,83.07
2022-11-05T23:56:31.864Z,83.81
2022-11-05T23:58:34.148Z,82.85
